createdAt,value
2017-04-22T00:00:37.699Z,7.35
2017-04-22T00:01:37.532Z,9.82
2017-04-22T00:02:36.751Z,7.67
2017-04-22T00:03:35.924Z,9.60
2017-04-22T00:04:35.011Z,9.10
2017-04-22T00:05:34.124Z,7.57
2017-04-22T00:06:33.235Z,7.60
2017-04-22T00:07:33.079Z,6.70
2017-04-22T00:08:32.176Z,7.83
2017-04-22T00:09:31.259Z,6.00
2017-04-22T00:10:30.373Z,7.57
2017-04-22T00:11:29.455Z,8.72
2017-04-22T00:12:28.556Z,7.73
2017-04-22T00:13:28.388Z,6.65
2017-04-22T00:14:27.498Z,6.40
2017-04-22T00:15:26.699Z,8.93
2017-04-22T00:16:25.775Z,7.12
2017-04-22T00:17:24.868Z,7.60
2017-04-22T00:18:23.960Z,8.38
2017-04-22T00:19:23.040Z,6.25
2017-04-22T00:20:22.467Z,6.95
2017-04-22T00:21:22.300Z,6.10
2017-04-22T00:22:21.411Z,7.30
2017-04-22T00:23:20.488Z,6.32
2017-04-22T00:24:19.576Z,6.12
2017-04-22T00:25:18.660Z,7.50
2017-04-22T00:26:18.488Z,7.42
2017-04-22T00:27:17.596Z,6.03
2017-04-22T00:28:17.468Z,6.18
2017-04-22T00:29:16.556Z,6.50
2017-04-22T00:30:15.648Z,6.48
2017-04-22T00:31:14.736Z,6.05
2017-04-22T00:32:13.823Z,6.93
2017-04-22T00:33:12.936Z,7.58
2017-04-22T00:34:12.023Z,7.38
2017-04-22T00:35:11.123Z,7.47
2017-04-22T00:36:10.279Z,7.08
2017-04-22T00:37:10.113Z,11.00
2017-04-22T00:38:09.243Z,10.35
2017-04-22T00:39:08.409Z,7.35
2017-04-22T00:40:07.524Z,8.97
2017-04-22T00:41:06.619Z,8.77
2017-04-22T00:42:05.707Z,11.78
2017-04-22T00:43:05.563Z,12.25
2017-04-22T00:44:04.683Z,10.72
2017-04-22T00:45:03.780Z,10.57
2017-04-22T00:46:03.620Z,7.77
2017-04-22T00:47:02.707Z,7.58
2017-04-22T00:48:01.796Z,8.38
2017-04-22T00:49:00.879Z,8.93
2017-04-22T00:49:59.977Z,6.92
2017-04-22T00:50:59.068Z,9.57
2017-04-22T00:51:58.232Z,9.67
2017-04-22T00:52:57.340Z,8.57
2017-04-22T00:53:56.592Z,7.08
2017-04-22T00:54:55.740Z,7.52
2017-04-22T00:55:54.852Z,7.37
2017-04-22T00:56:54.703Z,9.60
2017-04-22T00:57:53.807Z,9.05
2017-04-22T00:58:52.916Z,8.65
2017-04-22T00:59:52.787Z,7.90
2017-04-22T01:00:51.964Z,6.77
2017-04-22T01:01:51.067Z,7.30
2017-04-22T01:02:50.191Z,9.13
2017-04-22T01:03:50.047Z,7.82
2017-04-22T01:04:49.234Z,7.10
2017-04-22T01:05:48.378Z,7.35
2017-04-22T01:06:47.490Z,6.80
2017-04-22T01:07:46.595Z,8.80
2017-04-22T01:08:45.739Z,10.00
2017-04-22T01:09:44.855Z,8.65
2017-04-22T01:10:43.963Z,8.30
2017-04-22T01:11:43.095Z,7.12
2017-04-22T01:12:42.204Z,8.10
2017-04-22T01:13:41.307Z,6.98
2017-04-22T01:14:40.431Z,9.32
2017-04-22T01:15:40.277Z,7.42
2017-04-22T01:16:39.419Z,7.72
2017-04-22T01:17:39.272Z,8.17
2017-04-22T01:18:38.388Z,8.67
2017-04-22T01:19:37.492Z,7.97
2017-04-22T01:20:37.352Z,8.05
2017-04-22T01:21:36.455Z,7.82
2017-04-22T01:22:35.579Z,8.30
2017-04-22T01:23:35.443Z,7.98
2017-04-22T01:24:34.556Z,7.07
2017-04-22T01:25:34.407Z,7.05
2017-04-22T01:26:33.548Z,6.55
2017-04-22T01:27:33.644Z,5.83
2017-04-22T01:28:32.748Z,8.10
2017-04-22T01:29:32.598Z,7.42
2017-04-22T01:30:31.704Z,7.05
2017-04-22T01:31:30.819Z,6.55
2017-04-22T01:32:30.751Z,7.58
2017-04-22T01:33:29.873Z,8.80
2017-04-22T01:34:29.783Z,7.85
2017-04-22T01:35:28.895Z,6.97
2017-04-22T01:36:28.743Z,7.63
2017-04-22T01:37:27.871Z,7.87
2017-04-22T01:38:26.979Z,7.25
2017-04-22T01:39:26.831Z,7.27
2017-04-22T01:40:25.940Z,6.72
2017-04-22T01:41:25.147Z,6.60
2017-04-22T01:42:25.003Z,6.75
2017-04-22T01:43:24.124Z,6.47
2017-04-22T01:44:23.243Z,8.87
2017-04-22T01:45:22.350Z,7.98
2017-04-22T01:46:21.459Z,6.02
2017-04-22T01:47:20.576Z,6.40
2017-04-22T01:48:20.456Z,5.68
2017-04-22T01:49:19.670Z,6.40
2017-04-22T01:50:19.512Z,6.22
2017-04-22T01:51:18.612Z,6.70
2017-04-22T01:52:17.711Z,8.55
2017-04-22T01:53:16.796Z,6.47
2017-04-22T01:54:15.900Z,7.67
2017-04-22T01:55:14.975Z,7.60
2017-04-22T01:56:14.063Z,7.20
2017-04-22T01:57:13.152Z,7.23
2017-04-22T01:58:12.229Z,7.00
2017-04-22T01:59:11.671Z,7.23
2017-04-22T02:00:10.752Z,8.22
2017-04-22T02:01:09.849Z,7.18
2017-04-22T02:02:09.011Z,6.47
2017-04-22T02:03:08.840Z,7.10
2017-04-22T02:04:07.924Z,7.03
2017-04-22T02:05:07.029Z,7.45
2017-04-22T02:06:06.123Z,7.77
2017-04-22T02:07:05.318Z,7.27
2017-04-22T02:08:04.409Z,8.07
2017-04-22T02:09:03.639Z,6.43
2017-04-22T02:10:02.751Z,6.40
2017-04-22T02:11:02.312Z,7.52
2017-04-22T02:12:02.144Z,7.10
2017-04-22T02:13:01.235Z,7.07
2017-04-22T02:14:00.324Z,6.45
2017-04-22T02:14:59.402Z,7.13
2017-04-22T02:15:58.508Z,7.50
2017-04-22T02:16:57.604Z,6.00
2017-04-22T02:17:56.727Z,6.75
2017-04-22T02:18:56.564Z,8.15
2017-04-22T02:19:55.652Z,9.78
2017-04-22T02:20:54.773Z,8.08
2017-04-22T02:21:53.872Z,7.70
2017-04-22T02:22:53.705Z,9.13
2017-04-22T02:23:52.796Z,6.90
2017-04-22T02:24:51.879Z,7.27
2017-04-22T02:25:50.959Z,7.68
2017-04-22T02:26:50.060Z,8.52
2017-04-22T02:27:49.152Z,7.97
2017-04-22T02:28:48.247Z,8.98
2017-04-22T02:29:47.394Z,9.02
2017-04-22T02:30:46.484Z,8.25
2017-04-22T02:31:45.603Z,10.43
2017-04-22T02:32:44.691Z,10.13
2017-04-22T02:33:43.818Z,10.53
2017-04-22T02:34:43.652Z,11.08
2017-04-22T02:35:42.735Z,9.48
2017-04-22T02:36:41.817Z,9.78
2017-04-22T02:37:40.919Z,10.25
2017-04-22T02:38:40.012Z,11.15
2017-04-22T02:39:39.108Z,10.42
2017-04-22T02:40:38.223Z,12.15
2017-04-22T02:41:37.315Z,10.38
2017-04-22T02:42:37.168Z,9.48
2017-04-22T02:43:36.280Z,12.65
2017-04-22T02:44:35.400Z,10.67
2017-04-22T02:45:35.260Z,10.70
2017-04-22T02:46:34.356Z,12.20
2017-04-22T02:47:33.469Z,10.73
2017-04-22T02:48:33.313Z,11.32
2017-04-22T02:49:32.407Z,10.92
2017-04-22T02:50:31.503Z,11.73
2017-04-22T02:51:30.932Z,10.65
2017-04-22T02:52:30.867Z,11.57
2017-04-22T02:53:29.992Z,9.17
2017-04-22T02:54:29.086Z,13.72
2017-04-22T02:55:28.175Z,12.02
2017-04-22T02:56:28.060Z,11.10
2017-04-22T02:57:27.163Z,10.72
2017-04-22T02:58:27.064Z,11.15
2017-04-22T02:59:26.161Z,10.72
2017-04-22T03:00:25.283Z,10.03
2017-04-22T03:01:24.415Z,11.15
2017-04-22T03:02:23.511Z,11.25
2017-04-22T03:03:22.619Z,11.25
2017-04-22T03:04:22.451Z,10.30
2017-04-22T03:05:21.544Z,10.38
2017-04-22T03:06:20.645Z,13.37
2017-04-22T03:07:19.736Z,10.40
2017-04-22T03:08:18.879Z,11.82
2017-04-22T03:09:17.992Z,11.13
2017-04-22T03:10:17.201Z,10.10
2017-04-22T03:11:16.336Z,10.00
2017-04-22T03:12:15.436Z,10.42
2017-04-22T03:13:14.536Z,11.82
2017-04-22T03:14:13.652Z,10.72
2017-04-22T03:15:12.745Z,11.98
2017-04-22T03:16:11.844Z,11.60
2017-04-22T03:17:11.679Z,10.20
2017-04-22T03:18:10.777Z,11.90
2017-04-22T03:19:09.881Z,11.55
2017-04-22T03:20:08.996Z,11.35
2017-04-22T03:21:08.104Z,11.70
2017-04-22T03:22:07.208Z,11.60
2017-04-22T03:23:06.308Z,10.68
2017-04-22T03:24:05.400Z,10.02
2017-04-22T03:25:04.516Z,9.40
2017-04-22T03:26:03.607Z,11.45
2017-04-22T03:27:02.700Z,11.40
2017-04-22T03:28:02.539Z,11.37
2017-04-22T03:29:01.640Z,11.90
2017-04-22T03:30:00.735Z,10.85
2017-04-22T03:30:59.859Z,9.73
2017-04-22T03:31:59.696Z,9.58
2017-04-22T03:32:58.855Z,11.13
2017-04-22T03:33:58.688Z,11.28
2017-04-22T03:34:57.792Z,11.80
2017-04-22T03:35:56.920Z,11.07
2017-04-22T03:36:56.852Z,11.83
2017-04-22T03:37:55.943Z,9.77
2017-04-22T03:38:55.040Z,10.48
2017-04-22T03:39:54.133Z,9.85
2017-04-22T03:40:53.224Z,12.50
2017-04-22T03:41:52.339Z,13.18
2017-04-22T03:42:51.428Z,12.53
2017-04-22T03:43:50.527Z,10.48
2017-04-22T03:44:50.360Z,10.35
2017-04-22T03:45:49.451Z,11.40
2017-04-22T03:46:48.564Z,9.62
2017-04-22T03:47:47.647Z,8.28
2017-04-22T03:48:46.751Z,9.75
2017-04-22T03:49:45.929Z,10.22
2017-04-22T03:50:45.019Z,10.62
2017-04-22T03:51:44.156Z,12.95
2017-04-22T03:52:43.291Z,12.68
2017-04-22T03:53:42.471Z,11.88
2017-04-22T03:54:41.583Z,10.53
2017-04-22T03:55:41.448Z,9.48
2017-04-22T03:56:40.561Z,9.40
2017-04-22T03:57:39.699Z,11.23
2017-04-22T03:58:38.816Z,10.57
2017-04-22T03:59:37.941Z,11.40
2017-04-22T04:00:37.807Z,9.28
2017-04-22T04:01:36.929Z,10.70
2017-04-22T04:02:36.880Z,10.93
2017-04-22T04:03:35.996Z,11.77
2017-04-22T04:04:35.115Z,10.23
2017-04-22T04:05:34.233Z,11.37
2017-04-22T04:06:33.352Z,11.53
2017-04-22T04:07:32.500Z,12.05
2017-04-22T04:08:31.624Z,11.72
2017-04-22T04:09:30.744Z,10.20
2017-04-22T04:10:29.868Z,11.52
2017-04-22T04:11:28.983Z,11.53
2017-04-22T04:12:28.098Z,10.70
2017-04-22T04:13:27.240Z,12.28
2017-04-22T04:14:27.100Z,12.00
2017-04-22T04:15:26.256Z,10.52
2017-04-22T04:16:25.371Z,11.57
2017-04-22T04:17:24.497Z,10.82
2017-04-22T04:18:23.655Z,9.63
2017-04-22T04:19:22.791Z,12.22
2017-04-22T04:20:21.920Z,12.30
2017-04-22T04:21:21.035Z,11.23
2017-04-22T04:22:20.180Z,11.85
2017-04-22T04:23:19.305Z,10.28
2017-04-22T04:24:18.439Z,12.12
2017-04-22T04:25:18.300Z,11.92
2017-04-22T04:26:17.426Z,12.28
2017-04-22T04:27:17.292Z,10.77
2017-04-22T04:28:16.414Z,12.23
2017-04-22T04:29:16.318Z,11.30
2017-04-22T04:30:16.183Z,11.70
2017-04-22T04:31:15.304Z,11.27
2017-04-22T04:32:14.419Z,9.25
2017-04-22T04:33:13.541Z,8.22
2017-04-22T04:34:12.663Z,10.57
2017-04-22T04:35:12.556Z,11.65
2017-04-22T04:36:11.667Z,10.52
2017-04-22T04:37:11.524Z,12.20
2017-04-22T04:38:10.634Z,11.55
2017-04-22T04:39:09.767Z,13.22
2017-04-22T04:40:08.952Z,9.75
2017-04-22T04:41:08.067Z,11.27
2017-04-22T04:42:07.203Z,12.77
2017-04-22T04:43:06.359Z,12.05
2017-04-22T04:44:05.475Z,10.57
2017-04-22T04:45:04.655Z,12.07
2017-04-22T04:46:04.527Z,12.45
2017-04-22T04:47:03.640Z,12.68
2017-04-22T04:48:03.499Z,11.95
2017-04-22T04:49:02.621Z,12.80
2017-04-22T04:50:01.789Z,13.70
2017-04-22T04:51:00.947Z,13.97
2017-04-22T04:52:00.088Z,12.68
2017-04-22T04:52:59.931Z,11.98
2017-04-22T04:53:59.051Z,10.95
2017-04-22T04:54:58.163Z,13.47
2017-04-22T04:55:58.011Z,13.50
2017-04-22T04:56:57.136Z,11.48
2017-04-22T04:57:56.225Z,10.48
2017-04-22T04:58:55.315Z,10.03
2017-04-22T04:59:54.403Z,12.90
2017-04-22T05:00:54.239Z,10.82
2017-04-22T05:01:53.395Z,14.23
2017-04-22T05:02:53.231Z,11.32
2017-04-22T05:03:52.327Z,13.10
2017-04-22T05:04:51.419Z,15.02
2017-04-22T05:05:50.567Z,12.67
2017-04-22T05:06:50.391Z,13.23
2017-04-22T05:07:49.501Z,12.15
2017-04-22T05:08:48.604Z,13.95
2017-04-22T05:09:47.695Z,12.48
2017-04-22T05:10:46.788Z,13.93
2017-04-22T05:11:46.891Z,13.13
2017-04-22T05:12:46.003Z,13.52
2017-04-22T05:13:45.844Z,13.37
2017-04-22T05:14:44.949Z,13.08
2017-04-22T05:15:44.043Z,13.68
2017-04-22T05:16:43.131Z,13.73
2017-04-22T05:17:42.698Z,13.22
2017-04-22T05:18:41.906Z,12.50
2017-04-22T05:19:40.995Z,15.63
2017-04-22T05:20:40.872Z,14.03
2017-04-22T05:21:39.959Z,12.93
2017-04-22T05:22:39.082Z,15.03
2017-04-22T05:23:38.180Z,15.02
2017-04-22T05:24:38.015Z,15.08
2017-04-22T05:25:37.151Z,13.47
2017-04-22T05:26:36.240Z,13.55
2017-04-22T05:27:35.348Z,14.65
2017-04-22T05:28:35.268Z,12.23
2017-04-22T05:29:34.368Z,14.50
2017-04-22T05:30:33.466Z,15.27
2017-04-22T05:31:32.563Z,13.32
2017-04-22T05:32:31.656Z,12.37
2017-04-22T05:33:30.775Z,15.32
2017-04-22T05:34:30.612Z,15.87
2017-04-22T05:35:29.711Z,16.32
2017-04-22T05:36:28.879Z,13.70
2017-04-22T05:37:27.983Z,15.10
2017-04-22T05:38:27.075Z,12.53
2017-04-22T05:39:26.197Z,16.53
2017-04-22T05:40:26.036Z,16.73
2017-04-22T05:41:25.130Z,14.87
2017-04-22T05:42:24.223Z,16.10
2017-04-22T05:43:23.323Z,14.65
2017-04-22T05:44:22.471Z,13.30
2017-04-22T05:45:21.560Z,14.62
2017-04-22T05:46:20.731Z,16.43
2017-04-22T05:47:20.567Z,14.78
2017-04-22T05:48:19.664Z,13.75
2017-04-22T05:49:18.761Z,11.93
2017-04-22T05:50:17.871Z,16.60
2017-04-22T05:51:16.960Z,17.27
2017-04-22T05:52:16.839Z,15.58
2017-04-22T05:53:15.964Z,15.50
2017-04-22T05:54:15.087Z,17.80
2017-04-22T05:55:14.240Z,18.08
2017-04-22T05:56:13.361Z,17.00
2017-04-22T05:57:12.504Z,15.80
2017-04-22T05:58:12.372Z,16.95
2017-04-22T05:59:11.511Z,17.48
2017-04-22T06:00:10.677Z,16.30
2017-04-22T06:01:10.647Z,15.47
2017-04-22T06:02:09.768Z,16.28
2017-04-22T06:03:09.628Z,16.55
2017-04-22T06:04:08.751Z,17.10
2017-04-22T06:05:08.611Z,17.57
2017-04-22T06:06:07.775Z,15.43
2017-04-22T06:07:07.000Z,16.17
2017-04-22T06:08:06.119Z,16.25
2017-04-22T06:09:05.992Z,15.90
2017-04-22T06:10:05.104Z,14.18
2017-04-22T06:11:04.963Z,16.57
2017-04-22T06:12:04.099Z,16.45
2017-04-22T06:13:04.012Z,18.28
2017-04-22T06:14:03.141Z,17.68
2017-04-22T06:15:02.260Z,16.30
2017-04-22T06:16:01.426Z,15.10
2017-04-22T06:17:00.582Z,15.75
2017-04-22T06:17:59.723Z,17.05
2017-04-22T06:18:58.845Z,14.87
2017-04-22T06:19:57.965Z,16.90
2017-04-22T06:20:57.087Z,13.57
2017-04-22T06:21:56.950Z,15.07
2017-04-22T06:22:56.096Z,16.37
2017-04-22T06:23:55.221Z,16.17
2017-04-22T06:24:54.340Z,14.97
2017-04-22T06:25:53.463Z,12.98
2017-04-22T06:26:52.583Z,15.77
2017-04-22T06:27:51.719Z,15.35
2017-04-22T06:28:50.842Z,14.72
2017-04-22T06:29:49.975Z,14.08
2017-04-22T06:30:49.860Z,16.80
2017-04-22T06:31:49.082Z,15.48
2017-04-22T06:32:48.263Z,13.62
2017-04-22T06:33:48.168Z,13.48
2017-04-22T06:34:48.037Z,14.20
2017-04-22T06:35:47.152Z,13.97
2017-04-22T06:36:47.018Z,12.50
2017-04-22T06:37:46.139Z,12.18
2017-04-22T06:38:46.035Z,14.83
2017-04-22T06:39:45.207Z,12.85
2017-04-22T06:40:44.329Z,13.85
2017-04-22T06:41:44.293Z,15.10
2017-04-22T06:42:43.413Z,11.92
2017-04-22T06:43:43.385Z,15.27
2017-04-22T06:44:42.556Z,12.18
2017-04-22T06:45:41.671Z,13.62
2017-04-22T06:46:40.823Z,13.60
2017-04-22T06:47:39.932Z,15.00
2017-04-22T06:48:39.062Z,14.18
2017-04-22T06:49:38.199Z,13.92
2017-04-22T06:50:37.320Z,12.92
2017-04-22T06:51:37.176Z,11.60
2017-04-22T06:52:36.291Z,14.98
2017-04-22T06:53:35.388Z,12.38
2017-04-22T06:54:35.265Z,13.20
2017-04-22T06:55:35.127Z,11.85
2017-04-22T06:56:34.293Z,13.77
2017-04-22T06:57:34.140Z,13.75
2017-04-22T06:58:33.241Z,11.58
2017-04-22T06:59:32.824Z,14.35
2017-04-22T07:00:31.943Z,12.28
2017-04-22T07:01:31.039Z,11.67
2017-04-22T07:02:37.959Z,12.45
2017-04-22T07:03:37.053Z,13.60
2017-04-22T07:04:36.152Z,11.62
2017-04-22T07:05:35.278Z,11.83
2017-04-22T07:06:35.140Z,12.93
2017-04-22T07:07:34.235Z,12.43
2017-04-22T07:08:33.349Z,11.20
2017-04-22T07:09:33.188Z,12.90
2017-04-22T07:10:32.300Z,12.30
2017-04-22T07:11:31.396Z,14.07
2017-04-22T07:12:30.483Z,12.48
2017-04-22T07:13:29.571Z,14.30
2017-04-22T07:14:28.676Z,12.87
2017-04-22T07:15:28.515Z,12.25
2017-04-22T07:16:27.624Z,14.47
2017-04-22T07:17:26.720Z,12.72
2017-04-22T07:18:25.807Z,11.22
2017-04-22T07:19:24.900Z,11.82
2017-04-22T07:20:23.995Z,12.88
2017-04-22T07:21:23.851Z,12.37
2017-04-22T07:22:22.944Z,12.07
2017-04-22T07:23:22.044Z,12.38
2017-04-22T07:24:21.131Z,12.30
2017-04-22T07:25:20.315Z,12.90
2017-04-22T07:26:19.412Z,12.52
2017-04-22T07:27:18.528Z,11.62
2017-04-22T07:28:18.363Z,14.85
2017-04-22T07:29:17.456Z,12.48
2017-04-22T07:30:16.553Z,10.68
2017-04-22T07:31:15.747Z,14.67
2017-04-22T07:32:15.080Z,11.90
2017-04-22T07:33:14.911Z,13.25
2017-04-22T07:34:14.021Z,12.17
2017-04-22T07:35:13.124Z,11.67
2017-04-22T07:36:12.223Z,13.08
2017-04-22T07:37:12.101Z,10.88
2017-04-22T07:38:11.192Z,10.97
2017-04-22T07:39:10.308Z,11.22
2017-04-22T07:40:10.163Z,12.73
2017-04-22T07:41:09.264Z,13.35
2017-04-22T07:42:08.376Z,12.65
2017-04-22T07:43:08.240Z,13.80
2017-04-22T07:44:07.384Z,11.25
2017-04-22T07:45:06.500Z,12.73
2017-04-22T07:46:05.587Z,11.83
2017-04-22T07:47:04.676Z,11.47
2017-04-22T07:48:03.812Z,11.75
2017-04-22T07:49:03.647Z,11.33
2017-04-22T07:50:02.799Z,11.65
2017-04-22T07:51:02.639Z,11.67
2017-04-22T07:52:01.751Z,11.02
2017-04-22T07:53:00.843Z,11.27
2017-04-22T07:53:59.952Z,10.92
2017-04-22T07:54:59.792Z,12.28
2017-04-22T07:55:58.897Z,10.67
2017-04-22T07:56:57.994Z,10.97
2017-04-22T07:57:57.083Z,10.95
2017-04-22T07:58:56.415Z,12.50
2017-04-22T07:59:56.411Z,11.65
2017-04-22T08:00:56.248Z,11.58
2017-04-22T08:01:55.351Z,11.92
2017-04-22T08:02:54.443Z,12.40
2017-04-22T08:03:53.533Z,11.93
2017-04-22T08:04:52.645Z,11.72
2017-04-22T08:05:51.735Z,11.85
2017-04-22T08:06:51.304Z,10.87
2017-04-22T08:07:50.395Z,11.98
2017-04-22T08:08:49.488Z,13.12
2017-04-22T08:09:48.600Z,11.55
2017-04-22T08:10:48.436Z,10.07
2017-04-22T08:11:47.546Z,11.47
2017-04-22T08:12:46.637Z,13.80
2017-04-22T08:13:45.732Z,12.57
2017-04-22T08:14:44.832Z,12.27
2017-04-22T08:15:44.683Z,12.95
2017-04-22T08:16:43.779Z,10.30
2017-04-22T08:17:42.884Z,11.03
2017-04-22T08:18:41.983Z,11.97
2017-04-22T08:19:41.076Z,12.45
2017-04-22T08:20:40.951Z,12.02
2017-04-22T08:21:40.056Z,11.30
2017-04-22T08:22:39.163Z,13.33
2017-04-22T08:23:39.067Z,13.17
2017-04-22T08:24:38.912Z,12.33
2017-04-22T08:25:38.029Z,14.12
2017-04-22T08:26:37.252Z,13.47
2017-04-22T08:27:35.584Z,11.63
2017-04-22T08:28:34.671Z,10.23
2017-04-22T08:29:33.781Z,11.90
2017-04-22T08:30:33.632Z,13.43
2017-04-22T08:31:32.743Z,13.32
2017-04-22T08:32:31.849Z,12.23
2017-04-22T08:33:31.820Z,11.85
2017-04-22T08:34:30.908Z,12.63
2017-04-22T08:35:30.007Z,12.00
2017-04-22T08:36:29.115Z,11.87
2017-04-22T08:37:28.952Z,11.42
2017-04-22T08:38:28.053Z,13.08
2017-04-22T08:39:27.188Z,11.97
2017-04-22T08:40:27.036Z,13.18
2017-04-22T08:41:26.140Z,12.03
2017-04-22T08:42:25.327Z,11.27
2017-04-22T08:43:24.424Z,10.85
2017-04-22T08:44:23.519Z,12.33
2017-04-22T08:45:22.619Z,10.40
2017-04-22T08:46:22.465Z,11.47
2017-04-22T08:47:21.585Z,13.33
2017-04-22T08:48:20.672Z,10.97
2017-04-22T08:49:19.764Z,10.73
2017-04-22T08:50:18.864Z,12.40
2017-04-22T08:51:18.707Z,11.00
2017-04-22T08:52:17.870Z,11.97
2017-04-22T08:53:16.993Z,10.88
2017-04-22T08:54:16.088Z,12.83
2017-04-22T08:55:15.276Z,12.05
2017-04-22T08:56:14.371Z,11.33
2017-04-22T08:57:13.488Z,12.23
2017-04-22T08:58:13.333Z,11.42
2017-04-22T08:59:12.432Z,12.80
2017-04-22T09:00:11.528Z,12.03
2017-04-22T09:01:10.620Z,11.87
2017-04-22T09:02:09.699Z,9.80
2017-04-22T09:03:08.820Z,11.22
2017-04-22T09:04:07.913Z,11.23
2017-04-22T09:05:07.008Z,10.77
2017-04-22T09:06:06.099Z,12.25
2017-04-22T09:07:05.200Z,11.58
2017-04-22T09:08:04.335Z,10.38
2017-04-22T09:09:04.349Z,11.68
2017-04-22T09:10:04.213Z,10.48
2017-04-22T09:11:03.339Z,11.20
2017-04-22T09:12:03.184Z,11.48
2017-04-22T09:13:02.279Z,10.68
2017-04-22T09:14:01.479Z,11.25
2017-04-22T09:15:00.583Z,11.22
2017-04-22T09:15:59.676Z,10.72
2017-04-22T09:16:59.528Z,10.28
2017-04-22T09:17:58.635Z,10.43
2017-04-22T09:18:57.768Z,11.23
2017-04-22T09:19:56.864Z,10.55
2017-04-22T09:20:55.967Z,11.85
2017-04-22T09:21:55.089Z,10.48
2017-04-22T09:22:54.176Z,11.02
2017-04-22T09:23:53.276Z,9.63
2017-04-22T09:24:53.132Z,9.13
2017-04-22T09:25:52.223Z,10.13
2017-04-22T09:26:51.328Z,9.10
2017-04-22T09:27:50.423Z,10.18
2017-04-22T09:28:49.571Z,10.23
2017-04-22T09:29:48.702Z,11.22
2017-04-22T09:30:47.900Z,10.75
2017-04-22T09:31:47.817Z,11.18
2017-04-22T09:32:47.017Z,10.92
2017-04-22T09:33:46.187Z,9.53
2017-04-22T09:34:45.347Z,12.12
2017-04-22T09:35:44.517Z,11.13
2017-04-22T09:36:43.616Z,10.20
2017-04-22T09:37:42.758Z,11.78
2017-04-22T09:38:41.871Z,11.13
2017-04-22T09:39:41.012Z,11.37
2017-04-22T09:40:40.215Z,10.93
2017-04-22T09:41:39.441Z,10.78
2017-04-22T09:42:38.692Z,11.78
2017-04-22T09:43:37.976Z,13.00
2017-04-22T09:44:37.273Z,12.80
2017-04-22T09:45:36.390Z,10.67
2017-04-22T09:46:35.868Z,11.58
2017-04-22T09:47:35.015Z,11.28
2017-04-22T09:48:34.855Z,12.63
2017-04-22T09:49:34.011Z,11.50
2017-04-22T09:50:33.255Z,12.55
2017-04-22T09:51:32.425Z,12.48
2017-04-22T09:52:31.555Z,11.73
2017-04-22T09:53:31.441Z,12.50
2017-04-22T09:54:30.577Z,12.65
2017-04-22T09:55:29.917Z,11.50
2017-04-22T09:56:29.280Z,13.73
2017-04-22T09:57:28.458Z,13.02
2017-04-22T09:58:27.712Z,12.60
2017-04-22T09:59:27.681Z,12.03
2017-04-22T10:00:26.801Z,12.70
2017-04-22T10:01:25.933Z,12.03
2017-04-22T10:02:25.155Z,12.03
2017-04-22T10:03:24.240Z,11.85
2017-04-22T10:04:23.351Z,11.80
2017-04-22T10:05:23.283Z,10.80
2017-04-22T10:06:22.629Z,10.73
2017-04-22T10:07:22.484Z,12.15
2017-04-22T10:08:21.666Z,11.42
2017-04-22T10:09:20.883Z,11.83
2017-04-22T10:10:20.026Z,11.22
2017-04-22T10:11:19.179Z,11.08
2017-04-22T10:12:19.064Z,10.43
2017-04-22T10:13:18.372Z,12.10
2017-04-22T10:14:18.297Z,11.40
2017-04-22T10:15:17.568Z,10.60
2017-04-22T10:16:17.415Z,10.38
2017-04-22T10:17:16.512Z,10.97
2017-04-22T10:18:15.628Z,10.15
2017-04-22T10:19:14.836Z,11.65
2017-04-22T10:20:14.731Z,11.93
2017-04-22T10:21:14.068Z,11.58
2017-04-22T10:22:13.356Z,9.85
2017-04-22T10:23:12.509Z,10.65
2017-04-22T10:24:12.353Z,9.65
2017-04-22T10:25:11.463Z,10.88
2017-04-22T10:26:10.636Z,11.28
2017-04-22T10:27:09.827Z,10.90
2017-04-22T10:28:08.972Z,10.45
2017-04-22T10:29:08.173Z,9.90
2017-04-22T10:30:07.337Z,9.05
2017-04-22T10:31:06.474Z,8.60
2017-04-22T10:32:05.960Z,10.82
2017-04-22T10:33:05.169Z,10.32
2017-04-22T10:34:05.175Z,10.28
2017-04-22T10:35:04.366Z,8.38
2017-04-22T10:36:03.550Z,8.97
2017-04-22T10:37:02.648Z,8.40
2017-04-22T10:38:02.066Z,8.38
2017-04-22T10:39:01.910Z,8.67
2017-04-22T10:40:01.044Z,8.63
2017-04-22T10:41:01.176Z,8.83
2017-04-22T10:42:00.269Z,9.67
2017-04-22T10:42:59.408Z,9.80
2017-04-22T10:43:58.508Z,11.15
2017-04-22T10:44:57.601Z,9.93
2017-04-22T10:45:57.468Z,8.83
2017-04-22T10:46:56.571Z,9.43
2017-04-22T10:47:55.659Z,7.55
2017-04-22T10:48:54.765Z,8.20
2017-04-22T10:49:54.604Z,8.53
2017-04-22T10:50:53.699Z,9.40
2017-04-22T10:51:52.840Z,8.73
2017-04-22T10:52:52.715Z,7.10
2017-04-22T10:53:51.848Z,8.62
2017-04-22T10:54:51.012Z,8.02
2017-04-22T10:55:50.885Z,8.80
2017-04-22T10:56:50.050Z,6.90
2017-04-22T10:57:49.171Z,6.70
2017-04-22T10:58:48.296Z,6.93
2017-04-22T10:59:47.565Z,7.32
2017-04-22T11:00:46.841Z,9.05
2017-04-22T11:01:45.932Z,9.65
2017-04-22T11:02:45.791Z,7.92
2017-04-22T11:03:44.904Z,9.37
2017-04-22T11:04:44.059Z,8.13
2017-04-22T11:05:43.315Z,8.25
2017-04-22T11:06:42.479Z,9.68
2017-04-22T11:07:41.619Z,9.08
2017-04-22T11:08:40.720Z,6.83
2017-04-22T11:09:39.872Z,8.30
2017-04-22T11:10:39.090Z,9.48
2017-04-22T11:11:38.184Z,8.82
2017-04-22T11:12:37.363Z,8.92
2017-04-22T11:13:36.635Z,8.70
2017-04-22T11:14:35.855Z,9.17
2017-04-22T11:15:35.075Z,9.13
2017-04-22T11:16:34.960Z,7.25
2017-04-22T11:17:34.052Z,6.92
2017-04-22T11:18:33.305Z,8.55
2017-04-22T11:19:32.435Z,8.62
2017-04-22T11:20:32.362Z,7.82
2017-04-22T11:21:31.493Z,8.05
2017-04-22T11:22:30.748Z,8.03
2017-04-22T11:23:29.848Z,8.22
2017-04-22T11:24:29.020Z,8.38
2017-04-22T11:25:28.312Z,7.88
2017-04-22T11:26:27.501Z,7.00
2017-04-22T11:27:26.822Z,7.55
2017-04-22T11:28:25.912Z,6.00
2017-04-22T11:29:25.013Z,6.55
2017-04-22T11:30:24.107Z,6.88
2017-04-22T11:31:23.972Z,7.52
2017-04-22T11:32:23.069Z,6.63
2017-04-22T11:33:22.164Z,7.15
2017-04-22T11:34:21.292Z,7.30
2017-04-22T11:35:20.424Z,6.68
2017-04-22T11:36:19.545Z,7.97
2017-04-22T11:37:19.396Z,6.95
2017-04-22T11:38:18.520Z,7.50
2017-04-22T11:39:17.632Z,7.60
2017-04-22T11:40:16.743Z,7.62
2017-04-22T11:41:15.841Z,8.28
2017-04-22T11:42:16.821Z,7.83
2017-04-22T11:43:16.664Z,7.40
2017-04-22T11:44:15.764Z,7.27
2017-04-22T11:45:14.903Z,8.65
2017-04-22T11:46:14.762Z,9.05
2017-04-22T11:47:13.866Z,7.83
2017-04-22T11:48:12.988Z,10.15
2017-04-22T11:49:12.085Z,8.55
2017-04-22T11:50:11.228Z,8.33
2017-04-22T11:51:10.324Z,7.77
2017-04-22T11:52:10.205Z,8.78
2017-04-22T11:53:09.308Z,8.35
2017-04-22T11:54:09.252Z,7.25
2017-04-22T11:55:08.371Z,7.65
2017-04-22T11:56:07.484Z,8.28
2017-04-22T11:57:07.328Z,8.73
2017-04-22T11:58:06.448Z,7.70
2017-04-22T11:59:05.564Z,7.30
2017-04-22T12:00:05.492Z,9.33
2017-04-22T12:01:04.635Z,8.98
2017-04-22T12:02:04.373Z,9.13
2017-04-22T12:03:03.565Z,9.50
2017-04-22T12:04:02.675Z,9.45
2017-04-22T12:05:01.884Z,8.32
2017-04-22T12:06:01.352Z,8.25
2017-04-22T12:07:00.460Z,9.83
2017-04-22T12:07:59.567Z,8.30
2017-04-22T12:08:58.667Z,9.05
2017-04-22T12:09:58.534Z,7.27
2017-04-22T12:10:57.651Z,9.15
2017-04-22T12:11:57.525Z,8.50
2017-04-22T12:12:56.651Z,10.13
2017-04-22T12:13:56.492Z,9.23
2017-04-22T12:14:55.600Z,9.02
2017-04-22T12:15:54.716Z,8.37
2017-04-22T12:16:54.560Z,8.38
2017-04-22T12:17:53.673Z,8.88
2017-04-22T12:18:52.857Z,8.28
2017-04-22T12:19:51.924Z,8.92
2017-04-22T12:20:51.062Z,8.73
2017-04-22T12:21:50.915Z,9.58
2017-04-22T12:22:50.047Z,10.27
2017-04-22T12:23:49.937Z,11.07
2017-04-22T12:24:49.039Z,10.33
2017-04-22T12:25:48.897Z,8.45
2017-04-22T12:26:48.031Z,9.68
2017-04-22T12:27:47.902Z,9.73
2017-04-22T12:28:47.027Z,8.90
2017-04-22T12:29:46.889Z,10.52
2017-04-22T12:30:45.991Z,10.28
2017-04-22T12:31:45.196Z,9.48
2017-04-22T12:32:44.316Z,10.23
2017-04-22T12:33:43.452Z,11.33
2017-04-22T12:34:42.559Z,12.52
2017-04-22T12:35:42.484Z,11.68
2017-04-22T12:36:41.609Z,10.25
2017-04-22T12:37:40.803Z,11.55
2017-04-22T12:38:39.981Z,10.95
2017-04-22T12:39:39.118Z,9.12
2017-04-22T12:40:38.263Z,9.72
2017-04-22T12:41:37.373Z,9.60
2017-04-22T12:42:37.229Z,9.08
2017-04-22T12:43:36.437Z,11.20
2017-04-22T12:44:35.552Z,10.02
2017-04-22T12:45:35.625Z,10.33
2017-04-22T12:46:34.763Z,11.73
2017-04-22T12:47:33.940Z,10.25
2017-04-22T12:48:33.184Z,10.23
2017-04-22T12:49:32.328Z,10.43
2017-04-22T12:50:31.570Z,9.92
2017-04-22T12:51:30.750Z,10.42
2017-04-22T12:52:29.889Z,11.80
2017-04-22T12:53:29.766Z,9.23